Terminal Aerodrome Forecast
Issued by NWS Tuscon, AZ

Current Version | Previous Version | Text Only | Print | Product List | Glossary On
Versions: 1 2 3 4 5 6 7 8 9 10 11 12 13
578
FTUS45 KTWC 222320
TAFDUG
TAF
KDUG 222320Z 2300/2324 10008KT P6SM FEW250
     FM230300 05006KT P6SM SKC
     FM230800 VRB04KT P6SM SKC
     FM231900 08007KT P6SM SCT250=

USA.gov is the U.S. government's official web portal to all federal, state and local government web resources and services.